Terminal Aerodrome Forecast
Issued by NWS Corpus Christi, TX

Home | Current Version | Previous Version | Text Only | Print | Product List | Glossary On
Versions: 1 2 3 4 5 6 7 8 9 10 11 12 13 14
000
FTUS44 KCRP 222335
TAFCRP
TAF
KCRP 222335Z 2300/2324 13013KT P6SM FEW025 SCT250
     FM230200 14008KT P6SM SCT025
      TEMPO 2305/2309 BKN025
     FM231400 13011KT P6SM VCSH SCT020 BKN035
     FM231900 12013G19KT P6SM SCT040=

USA.gov is the U.S. government's official web portal to all federal, state and local government web resources and services.